createdAt,value
2018-10-12T11:15:34.879Z,9.00
2018-10-12T11:18:02.794Z,7.53
2018-10-12T11:20:30.631Z,9.17
2018-10-12T11:22:58.383Z,6.97
2018-10-12T11:25:26.124Z,9.00
2018-10-12T11:27:53.878Z,8.80
2018-10-12T11:30:21.664Z,9.03
2018-10-12T11:32:49.465Z,9.70
2018-10-12T11:35:17.184Z,6.97
2018-10-12T11:37:45.723Z,7.23
2018-10-12T11:40:13.864Z,8.07
2018-10-12T11:42:52.891Z,7.33
2018-10-12T11:45:20.702Z,7.37
2018-10-12T11:47:48.420Z,7.70
2018-10-12T11:50:16.268Z,8.50
2018-10-12T11:52:43.880Z,8.30
2018-10-12T11:55:11.589Z,8.03
2018-10-12T11:57:39.297Z,8.63
2018-10-12T12:00:07.201Z,8.43
2018-10-12T12:02:34.983Z,7.90
2018-10-12T12:05:02.771Z,7.13
2018-10-12T12:07:30.527Z,7.50
2018-10-12T12:09:58.206Z,7.63
2018-10-12T12:12:26.013Z,6.27
2018-10-12T12:14:53.647Z,7.77
2018-10-12T12:17:21.400Z,7.17
2018-10-12T12:19:49.225Z,6.90
2018-10-12T12:22:17.028Z,6.87
2018-10-12T12:24:44.992Z,6.17
2018-10-12T12:27:13.372Z,6.37
2018-10-12T12:29:41.107Z,6.53
2018-10-12T12:32:10.875Z,6.50
2018-10-12T12:34:38.782Z,6.87
2018-10-12T12:37:06.380Z,6.57
2018-10-12T12:39:37.481Z,5.53
2018-10-12T12:42:05.268Z,6.90
2018-10-12T12:44:33.048Z,5.83
2018-10-12T12:47:00.961Z,5.40
2018-10-12T12:49:28.902Z,5.40
2018-10-12T12:51:56.409Z,5.40
2018-10-12T12:54:24.497Z,6.07
2018-10-12T12:56:52.213Z,4.47
2018-10-12T12:59:19.960Z,3.70
2018-10-12T13:01:47.736Z,4.20
2018-10-12T13:04:18.059Z,3.93
2018-10-12T13:06:45.740Z,4.23
2018-10-12T13:09:13.315Z,3.90
2018-10-12T13:11:41.076Z,3.30
2018-10-12T13:14:08.818Z,4.37
2018-10-12T13:16:36.483Z,3.50
2018-10-12T13:19:04.155Z,3.70
2018-10-12T13:21:31.796Z,3.93
2018-10-12T13:23:59.399Z,3.43
2018-10-12T13:26:26.960Z,3.33
2018-10-12T13:28:57.903Z,3.87
2018-10-12T13:31:25.480Z,2.90
2018-10-12T13:33:53.080Z,3.00
2018-10-12T13:36:20.680Z,2.83
2018-10-12T13:38:48.312Z,2.60
2018-10-12T13:41:16.055Z,2.80
2018-10-12T13:43:43.635Z,3.40
2018-10-12T13:46:11.203Z,2.63
2018-10-12T13:48:38.841Z,2.80
2018-10-12T13:51:06.571Z,3.30
2018-10-12T13:53:34.224Z,2.20
2018-10-12T13:56:01.804Z,3.10
2018-10-12T13:58:29.396Z,2.73
2018-10-12T14:00:57.086Z,2.10
2018-10-12T14:03:24.679Z,2.60
2018-10-12T14:05:52.326Z,2.80
2018-10-12T14:08:19.913Z,3.23
2018-10-12T14:10:47.474Z,2.20
2018-10-12T14:13:15.088Z,2.67
2018-10-12T14:15:42.744Z,2.77
2018-10-12T14:18:10.445Z,2.40
2018-10-12T14:20:37.939Z,3.07
2018-10-12T14:23:05.616Z,2.70
2018-10-12T14:25:33.205Z,3.20
2018-10-12T14:28:01.138Z,2.60
2018-10-12T14:30:28.383Z,2.93
2018-10-12T14:32:55.960Z,2.97
2018-10-12T14:35:23.584Z,3.10
2018-10-12T14:37:51.253Z,3.40
2018-10-12T14:40:18.867Z,2.90
2018-10-12T14:42:47.212Z,2.43
2018-10-12T14:45:14.888Z,3.00
2018-10-12T14:47:42.668Z,3.40
2018-10-12T14:50:10.424Z,3.03
2018-10-12T14:52:38.237Z,3.00
2018-10-12T14:55:06.013Z,2.83
2018-10-12T14:57:33.728Z,2.50
2018-10-12T15:00:01.438Z,2.60
2018-10-12T15:02:29.132Z,2.40
2018-10-12T15:04:56.797Z,2.70
2018-10-12T15:07:24.543Z,2.90
2018-10-12T15:09:52.206Z,2.60
2018-10-12T15:12:19.995Z,2.63
2018-10-12T15:14:58.976Z,2.90
2018-10-12T15:17:26.712Z,2.80
2018-10-12T15:19:54.440Z,2.83
2018-10-12T15:22:22.148Z,2.70
2018-10-12T15:24:49.840Z,1.90
2018-10-12T15:27:17.612Z,2.83
2018-10-12T15:29:45.227Z,2.83
2018-10-12T15:32:13.004Z,2.57
2018-10-12T15:34:41.088Z,2.97
2018-10-12T15:37:08.828Z,2.83
2018-10-12T15:39:36.559Z,2.70
2018-10-12T15:42:04.252Z,3.27
2018-10-12T15:44:31.984Z,6.97
2018-10-12T15:46:59.765Z,3.40
2018-10-12T15:49:27.732Z,3.73
2018-10-12T15:51:55.512Z,2.83
2018-10-12T15:54:23.269Z,2.93
2018-10-12T15:56:51.047Z,3.13
2018-10-12T15:59:18.771Z,2.67
2018-10-12T16:01:46.571Z,3.10
2018-10-12T16:04:14.392Z,3.50
2018-10-12T16:06:42.161Z,2.90
2018-10-12T16:09:09.991Z,4.10
2018-10-12T16:11:37.827Z,3.93
2018-10-12T16:14:05.604Z,3.43
2018-10-12T16:16:33.533Z,3.10
2018-10-12T16:19:01.239Z,2.30
2018-10-12T16:21:29.081Z,2.83
2018-10-12T16:24:00.048Z,3.20
2018-10-12T16:26:27.781Z,3.07
2018-10-12T16:28:55.508Z,3.13
2018-10-12T16:31:23.180Z,3.10
2018-10-12T16:33:50.896Z,3.00
2018-10-12T16:36:19.665Z,3.97
2018-10-12T16:38:47.428Z,3.47
2018-10-12T16:41:15.216Z,4.03
2018-10-12T16:43:42.945Z,3.07
2018-10-12T16:46:10.684Z,4.03
2018-10-12T16:48:38.372Z,3.63
2018-10-12T16:51:06.220Z,3.90
2018-10-12T16:53:34.321Z,3.30
2018-10-12T16:56:02.000Z,3.60
2018-10-12T16:58:29.762Z,3.60
2018-10-12T17:00:57.509Z,4.13
2018-10-12T17:03:25.224Z,3.70
2018-10-12T17:05:52.954Z,3.20
2018-10-12T17:08:20.642Z,3.77
2018-10-12T17:10:48.336Z,4.20
2018-10-12T17:13:16.079Z,3.93
2018-10-12T17:15:43.792Z,4.53
2018-10-12T17:18:11.525Z,4.43
2018-10-12T17:20:39.256Z,3.50
2018-10-12T17:23:07.152Z,3.73
2018-10-12T17:25:34.887Z,4.00
2018-10-12T17:28:02.629Z,3.70
2018-10-12T17:30:30.421Z,3.50
2018-10-12T17:32:58.176Z,3.80
2018-10-12T17:35:26.615Z,3.27
2018-10-12T17:37:54.433Z,3.90
2018-10-12T17:40:22.154Z,3.47
2018-10-12T17:42:49.964Z,3.83
2018-10-12T17:45:17.717Z,3.10
2018-10-12T17:47:45.622Z,4.23
2018-10-12T17:50:13.385Z,3.60
2018-10-12T17:52:41.122Z,3.87
2018-10-12T17:55:08.860Z,3.50
2018-10-12T17:57:36.531Z,3.50
2018-10-12T18:00:04.905Z,3.93
2018-10-12T18:02:32.572Z,2.73
2018-10-12T18:05:00.349Z,3.30
2018-10-12T18:07:28.064Z,4.70
2018-10-12T18:09:55.839Z,4.30
2018-10-12T18:12:23.814Z,4.07
2018-10-12T18:14:51.632Z,3.33
2018-10-12T18:17:19.352Z,3.00
2018-10-12T18:19:47.164Z,3.57
2018-10-12T18:22:15.729Z,3.97
2018-10-12T18:24:43.416Z,3.50
2018-10-12T18:27:11.541Z,3.80
2018-10-12T18:29:39.337Z,3.67
2018-10-12T18:32:08.158Z,4.07
2018-10-12T18:34:35.990Z,3.97
2018-10-12T18:37:03.740Z,4.20
2018-10-12T18:39:31.746Z,4.20
2018-10-12T18:42:00.637Z,4.07
2018-10-12T18:44:29.452Z,4.27
2018-10-12T18:46:57.250Z,3.53
2018-10-12T18:49:25.027Z,3.27
2018-10-12T18:51:52.812Z,4.53
2018-10-12T18:54:22.832Z,3.27
2018-10-12T18:56:51.831Z,4.50
2018-10-12T18:59:19.617Z,3.83
2018-10-12T19:01:48.210Z,4.67
2018-10-12T19:04:16.510Z,3.93
2018-10-12T19:06:44.501Z,3.40
2018-10-12T19:09:12.543Z,3.90
2018-10-12T19:11:41.597Z,4.20
2018-10-12T19:14:10.207Z,4.13
2018-10-12T19:16:38.080Z,3.27
2018-10-12T19:19:06.391Z,4.40
2018-10-12T19:21:34.140Z,4.40
2018-10-12T19:24:02.187Z,4.90
2018-10-12T19:26:30.997Z,4.50
2018-10-12T19:29:00.040Z,3.90
2018-10-12T19:31:28.388Z,4.17
2018-10-12T19:33:57.423Z,3.60
2018-10-12T19:36:26.547Z,4.33
2018-10-12T19:38:55.347Z,4.23
2018-10-12T19:41:24.085Z,5.10
2018-10-12T19:43:52.924Z,4.27
2018-10-12T19:46:20.932Z,3.60
2018-10-12T19:48:49.101Z,4.03
2018-10-12T19:51:17.568Z,3.73
2018-10-12T19:53:46.056Z,4.23
2018-10-12T19:56:15.830Z,4.77
2018-10-12T19:58:45.516Z,3.83
2018-10-12T20:01:14.949Z,5.03
2018-10-12T20:03:47.086Z,4.60
